sensor_id;sensor_type;location;lat;lon;timestamp;pressure;altitude;pressure_sealevel;temperature;humidity
34374;BME280;20637;55.770;37.592;2022-12-24T00:01:59;98740.81;;;3.28;87.29
34374;BME280;20637;55.770;37.592;2022-12-24T00:04:24;98738.88;;;3.30;87.18
34374;BME280;20637;55.770;37.592;2022-12-24T00:06:49;98730.16;;;3.28;87.54
34374;BME280;20637;55.770;37.592;2022-12-24T00:09:15;98730.31;;;3.27;87.29
34374;BME280;20637;55.770;37.592;2022-12-24T00:11:40;98725.97;;;3.26;87.54
34374;BME280;20637;55.770;37.592;2022-12-24T00:14:05;98715.00;;;3.29;87.40
34374;BME280;20637;55.770;37.592;2022-12-24T00:16:31;98711.06;;;3.33;87.74
34374;BME280;20637;55.770;37.592;2022-12-24T00:18:56;98713.34;;;3.28;87.81
34374;BME280;20637;55.770;37.592;2022-12-24T00:21:22;98720.63;;;3.26;87.23
34374;BME280;20637;55.770;37.592;2022-12-24T00:23:47;98715.44;;;3.24;87.53
34374;BME280;20637;55.770;37.592;2022-12-24T00:26:13;98720.63;;;3.26;87.29
34374;BME280;20637;55.770;37.592;2022-12-24T00:28:38;98724.13;;;3.26;87.28
34374;BME280;20637;55.770;37.592;2022-12-24T00:31:11;98722.88;;;3.30;87.76
34374;BME280;20637;55.770;37.592;2022-12-24T00:33:36;98721.19;;;3.29;87.47
34374;BME280;20637;55.770;37.592;2022-12-24T00:36:02;98726.22;;;3.32;87.76
34374;BME280;20637;55.770;37.592;2022-12-24T00:38:27;98729.59;;;3.34;87.53
34374;BME280;20637;55.770;37.592;2022-12-24T00:41:02;98730.44;;;3.35;87.28
34374;BME280;20637;55.770;37.592;2022-12-24T00:43:29;98728.44;;;3.37;87.18
34374;BME280;20637;55.770;37.592;2022-12-24T00:45:54;98737.00;;;3.41;87.26
34374;BME280;20637;55.770;37.592;2022-12-24T00:48:20;98746.16;;;3.38;87.51
34374;BME280;20637;55.770;37.592;2022-12-24T00:50:47;98736.63;;;3.35;86.98
34374;BME280;20637;55.770;37.592;2022-12-24T00:53:13;98741.97;;;3.35;86.92
34374;BME280;20637;55.770;37.592;2022-12-24T00:55:38;98743.63;;;3.36;87.13
34374;BME280;20637;55.770;37.592;2022-12-24T00:58:03;98750.63;;;3.38;86.77
34374;BME280;20637;55.770;37.592;2022-12-24T01:00:29;98745.59;;;3.34;87.06
34374;BME280;20637;55.770;37.592;2022-12-24T01:02:54;98742.75;;;3.36;86.75
34374;BME280;20637;55.770;37.592;2022-12-24T01:05:19;98748.09;;;3.36;86.84
34374;BME280;20637;55.770;37.592;2022-12-24T01:07:47;98740.25;;;3.34;87.17
34374;BME280;20637;55.770;37.592;2022-12-24T01:10:16;98737.44;;;3.36;86.86
34374;BME280;20637;55.770;37.592;2022-12-24T01:12:42;98748.09;;;3.36;87.20
34374;BME280;20637;55.770;37.592;2022-12-24T01:15:08;98739.28;;;3.35;86.90
34374;BME280;20637;55.770;37.592;2022-12-24T01:17:34;98744.63;;;3.35;86.84
34374;BME280;20637;55.770;37.592;2022-12-24T01:19:59;98739.84;;;3.39;87.14
34374;BME280;20637;55.770;37.592;2022-12-24T01:22:25;98744.31;;;3.39;87.03
34374;BME280;20637;55.770;37.592;2022-12-24T01:24:50;98737.59;;;3.34;86.75
34374;BME280;20637;55.770;37.592;2022-12-24T01:27:16;98732.56;;;3.31;87.46
34374;BME280;20637;55.770;37.592;2022-12-24T01:29:41;98732.97;;;3.27;87.38
34374;BME280;20637;55.770;37.592;2022-12-24T01:32:07;98735.66;;;3.27;87.40
34374;BME280;20637;55.770;37.592;2022-12-24T01:34:32;98734.81;;;3.26;87.71
34374;BME280;20637;55.770;37.592;2022-12-24T01:36:57;98741.13;;;3.25;87.18
34374;BME280;20637;55.770;37.592;2022-12-24T01:39:23;98743.22;;;3.22;87.36
34374;BME280;20637;55.770;37.592;2022-12-24T01:41:48;98744.38;;;3.19;87.49
34374;BME280;20637;55.770;37.592;2022-12-24T01:44:34;98737.47;;;3.17;87.71
34374;BME280;20637;55.770;37.592;2022-12-24T01:47:02;98735.25;;;3.12;87.99
34374;BME280;20637;55.770;37.592;2022-12-24T01:49:30;98747.59;;;3.13;87.69
34374;BME280;20637;55.770;37.592;2022-12-24T01:51:58;98739.75;;;3.12;88.38
34374;BME280;20637;55.770;37.592;2022-12-24T01:54:30;98756.59;;;3.12;87.96
34374;BME280;20637;55.770;37.592;2022-12-24T01:57:01;98753.78;;;3.14;88.33
34374;BME280;20637;55.770;37.592;2022-12-24T01:59:26;98750.97;;;3.15;88.25
34374;BME280;20637;55.770;37.592;2022-12-24T02:01:53;98750.97;;;3.15;88.52
34374;BME280;20637;55.770;37.592;2022-12-24T02:04:22;98754.91;;;3.11;88.46
34374;BME280;20637;55.770;37.592;2022-12-24T02:06:49;98758.72;;;3.09;88.42
34374;BME280;20637;55.770;37.592;2022-12-24T02:09:15;98761.38;;;3.09;88.46
34374;BME280;20637;55.770;37.592;2022-12-24T02:11:40;98752.25;;;3.11;88.64
34374;BME280;20637;55.770;37.592;2022-12-24T02:14:08;98750.97;;;3.15;88.39
34374;BME280;20637;55.770;37.592;2022-12-24T02:16:55;98767.41;;;3.20;88.61
34374;BME280;20637;55.770;37.592;2022-12-24T02:19:41;98760.75;;;3.24;88.39
34374;BME280;20637;55.770;37.592;2022-12-24T02:27:23;98763.16;;;3.27;88.42
34374;BME280;20637;55.770;37.592;2022-12-24T02:38:38;98767.50;;;3.28;87.73
34374;BME280;20637;55.770;37.592;2022-12-24T02:40:35;98768.22;;;3.30;87.85
34374;BME280;20637;55.770;37.592;2022-12-24T02:43:03;98768.22;;;3.30;87.71
34374;BME280;20637;55.770;37.592;2022-12-24T02:45:31;98778.44;;;3.35;88.15
34374;BME280;20637;55.770;37.592;2022-12-24T02:47:57;98768.75;;;3.34;87.88
34374;BME280;20637;55.770;37.592;2022-12-24T02:50:24;98766.94;;;3.34;87.42
34374;BME280;20637;55.770;37.592;2022-12-24T02:52:49;98766.09;;;3.34;87.64
34374;BME280;20637;55.770;37.592;2022-12-24T02:55:16;98759.78;;;3.35;87.63
34374;BME280;20637;55.770;37.592;2022-12-24T03:00:28;98754.56;;;3.33;87.32
34374;BME280;20637;55.770;37.592;2022-12-24T03:05:48;98755.97;;;3.38;87.15
34374;BME280;20637;55.770;37.592;2022-12-24T03:11:08;98758.22;;;3.42;87.28
34374;BME280;20637;55.770;37.592;2022-12-24T03:13:34;98751.72;;;3.45;87.42
34374;BME280;20637;55.770;37.592;2022-12-24T03:16:02;98758.75;;;3.46;87.30
34374;BME280;20637;55.770;37.592;2022-12-24T03:18:28;98751.06;;;3.43;87.24
34374;BME280;20637;55.770;37.592;2022-12-24T03:21:04;98743.06;;;3.43;87.05
34374;BME280;20637;55.770;37.592;2022-12-24T03:23:31;98753.00;;;3.41;87.27
34374;BME280;20637;55.770;37.592;2022-12-24T03:25:56;98754.84;;;3.40;86.85
34374;BME280;20637;55.770;37.592;2022-12-24T03:28:24;98758.63;;;3.38;86.92
34374;BME280;20637;55.770;37.592;2022-12-24T03:30:51;98759.06;;;3.33;86.60
34374;BME280;20637;55.770;37.592;2022-12-24T03:33:16;98756.81;;;3.28;86.46
34374;BME280;20637;55.770;37.592;2022-12-24T03:35:42;98760.06;;;3.22;86.90
34374;BME280;20637;55.770;37.592;2022-12-24T03:38:08;98754.06;;;3.20;86.89
34374;BME280;20637;55.770;37.592;2022-12-24T03:40:33;98752.78;;;3.15;87.05
34374;BME280;20637;55.770;37.592;2022-12-24T03:42:59;98763.75;;;3.12;86.84
34374;BME280;20637;55.770;37.592;2022-12-24T03:45:24;98756.84;;;3.09;87.23
34374;BME280;20637;55.770;37.592;2022-12-24T03:47:49;98760.78;;;3.05;87.16
34374;BME280;20637;55.770;37.592;2022-12-24T03:50:15;98758.41;;;3.02;87.49
34374;BME280;20637;55.770;37.592;2022-12-24T03:52:40;98758.72;;;2.99;87.69
34374;BME280;20637;55.770;37.592;2022-12-24T03:55:06;98766.03;;;2.97;87.71
34374;BME280;20637;55.770;37.592;2022-12-24T03:57:31;98764.31;;;2.96;87.59
34374;BME280;20637;55.770;37.592;2022-12-24T03:59:57;98758.44;;;2.93;88.03
34374;BME280;20637;55.770;37.592;2022-12-24T04:02:22;98762.22;;;2.90;88.04
34374;BME280;20637;55.770;37.592;2022-12-24T04:04:48;98771.06;;;2.91;88.05
34374;BME280;20637;55.770;37.592;2022-12-24T04:07:13;98756.19;;;2.88;88.42
34374;BME280;20637;55.770;37.592;2022-12-24T04:09:39;98757.16;;;2.87;88.35
34374;BME280;20637;55.770;37.592;2022-12-24T04:12:04;98755.34;;;2.87;88.58
34374;BME280;20637;55.770;37.592;2022-12-24T04:14:30;98753.22;;;2.91;88.85
34374;BME280;20637;55.770;37.592;2022-12-24T04:16:55;98759.28;;;2.93;88.78
34374;BME280;20637;55.770;37.592;2022-12-24T04:19:21;98754.94;;;2.92;88.83
34374;BME280;20637;55.770;37.592;2022-12-24T04:21:46;98747.06;;;2.91;88.50
34374;BME280;20637;55.770;37.592;2022-12-24T04:24:12;98755.06;;;2.91;88.66
34374;BME280;20637;55.770;37.592;2022-12-24T04:26:37;98752.09;;;2.94;88.94
34374;BME280;20637;55.770;37.592;2022-12-24T04:29:02;98744.53;;;2.99;89.21
34374;BME280;20637;55.770;37.592;2022-12-24T04:31:28;98749.19;;;2.97;88.71
34374;BME280;20637;55.770;37.592;2022-12-24T04:33:53;98747.34;;;2.97;89.06
34374;BME280;20637;55.770;37.592;2022-12-24T04:36:19;98738.34;;;2.98;88.66
34374;BME280;20637;55.770;37.592;2022-12-24T04:38:45;98738.91;;;3.02;88.95
34374;BME280;20637;55.770;37.592;2022-12-24T04:41:29;98737.50;;;2.98;88.55
34374;BME280;20637;55.770;37.592;2022-12-24T04:43:54;98737.66;;;2.96;88.62
34374;BME280;20637;55.770;37.592;2022-12-24T04:46:21;98730.66;;;2.95;88.65
34374;BME280;20637;55.770;37.592;2022-12-24T04:48:47;98735.00;;;2.96;88.55
34374;BME280;20637;55.770;37.592;2022-12-24T04:51:13;98730.34;;;2.98;88.66
34374;BME280;20637;55.770;37.592;2022-12-24T04:53:39;98740.16;;;2.98;88.47
34374;BME280;20637;55.770;37.592;2022-12-24T04:56:12;98737.66;;;2.96;88.29
34374;BME280;20637;55.770;37.592;2022-12-24T04:58:38;98737.66;;;2.96;88.25
34374;BME280;20637;55.770;37.592;2022-12-24T05:01:04;98738.34;;;2.98;88.65
34374;BME280;20637;55.770;37.592;2022-12-24T05:03:30;98739.34;;;2.97;88.61
34374;BME280;20637;55.770;37.592;2022-12-24T05:06:02;98737.50;;;2.98;88.31
34374;BME280;20637;55.770;37.592;2022-12-24T05:08:28;98733.56;;;3.02;88.55
34374;BME280;20637;55.770;37.592;2022-12-24T05:10:54;98726.28;;;3.04;88.32
34374;BME280;20637;55.770;37.592;2022-12-24T05:13:19;98727.97;;;3.05;88.79
34374;BME280;20637;55.770;37.592;2022-12-24T05:15:45;98731.34;;;3.07;88.63
34374;BME280;20637;55.770;37.592;2022-12-24T05:18:10;98724.06;;;3.09;88.50
34374;BME280;20637;55.770;37.592;2022-12-24T05:20:36;98713.09;;;3.12;88.64
34374;BME280;20637;55.770;37.592;2022-12-24T05:23:01;98715.59;;;3.13;88.46
34374;BME280;20637;55.770;37.592;2022-12-24T05:25:45;98716.31;;;3.15;88.48
34374;BME280;20637;55.770;37.592;2022-12-24T05:28:29;98718.69;;;3.18;88.08
34374;BME280;20637;55.770;37.592;2022-12-24T05:30:54;98722.06;;;3.20;88.55
34374;BME280;20637;55.770;37.592;2022-12-24T05:33:20;98712.06;;;3.22;88.58
34374;BME280;20637;55.770;37.592;2022-12-24T05:35:45;98710.81;;;3.26;88.72
34374;BME280;20637;55.770;37.592;2022-12-24T05:38:10;98708.13;;;3.26;88.32
34374;BME280;20637;55.770;37.592;2022-12-24T05:40:36;98709.13;;;3.25;88.45
34374;BME280;20637;55.770;37.592;2022-12-24T05:43:01;98710.38;;;3.21;87.99
34374;BME280;20637;55.770;37.592;2022-12-24T05:45:27;98709.28;;;3.14;88.05
34374;BME280;20637;55.770;37.592;2022-12-24T05:47:52;98702.56;;;3.10;88.37
34374;BME280;20637;55.770;37.592;2022-12-24T05:50:18;98713.22;;;3.10;88.23
34374;BME280;20637;55.770;37.592;2022-12-24T05:52:43;98707.22;;;3.08;88.24
34374;BME280;20637;55.770;37.592;2022-12-24T05:55:09;98711.41;;;3.11;88.24
34374;BME280;20637;55.770;37.592;2022-12-24T05:57:34;98701.28;;;3.14;88.30
34374;BME280;20637;55.770;37.592;2022-12-24T06:00:00;98709.16;;;3.16;88.31
34374;BME280;20637;55.770;37.592;2022-12-24T06:02:25;98712.66;;;3.16;88.15
34374;BME280;20637;55.770;37.592;2022-12-24T06:04:51;98702.13;;;3.15;88.25
34374;BME280;20637;55.770;37.592;2022-12-24T06:07:16;98702.44;;;3.12;88.70
34374;BME280;20637;55.770;37.592;2022-12-24T06:09:41;98707.22;;;3.08;88.47
34374;BME280;20637;55.770;37.592;2022-12-24T06:12:07;98706.91;;;3.11;88.37
34374;BME280;20637;55.770;37.592;2022-12-24T06:14:32;98703.41;;;3.11;88.59
34374;BME280;20637;55.770;37.592;2022-12-24T06:16:58;98702.44;;;3.12;88.29
34374;BME280;20637;55.770;37.592;2022-12-24T06:19:23;98711.94;;;3.14;88.35
34374;BME280;20637;55.770;37.592;2022-12-24T06:21:48;98709.16;;;3.16;88.68
34374;BME280;20637;55.770;37.592;2022-12-24T06:24:14;98703.81;;;3.16;88.51
34374;BME280;20637;55.770;37.592;2022-12-24T06:26:40;98718.97;;;3.15;88.58
34374;BME280;20637;55.770;37.592;2022-12-24T06:29:05;98708.31;;;3.15;88.52
34374;BME280;20637;55.770;37.592;2022-12-24T06:31:31;98707.34;;;3.16;88.46
34374;BME280;20637;55.770;37.592;2022-12-24T06:33:56;98708.00;;;3.18;88.57
34374;BME280;20637;55.770;37.592;2022-12-24T06:36:22;98711.94;;;3.24;88.64
34374;BME280;20637;55.770;37.592;2022-12-24T06:38:48;98707.28;;;3.26;88.56
34374;BME280;20637;55.770;37.592;2022-12-24T06:41:14;98711.94;;;3.24;88.60
34374;BME280;20637;55.770;37.592;2022-12-24T06:43:46;98706.31;;;3.17;88.31
34374;BME280;20637;55.770;37.592;2022-12-24T06:46:12;98712.78;;;3.15;88.68
34374;BME280;20637;55.770;37.592;2022-12-24T06:48:38;98701.28;;;3.14;88.39
34374;BME280;20637;55.770;37.592;2022-12-24T06:51:03;98702.56;;;3.10;88.66
34374;BME280;20637;55.770;37.592;2022-12-24T06:53:29;98694.84;;;3.07;88.67
34374;BME280;20637;55.770;37.592;2022-12-24T06:56:01;98692.31;;;3.06;88.96
34374;BME280;20637;55.770;37.592;2022-12-24T06:58:27;98696.13;;;3.03;88.98
34374;BME280;20637;55.770;37.592;2022-12-24T07:00:52;98692.63;;;3.03;89.35
34374;BME280;20637;55.770;37.592;2022-12-24T07:03:18;98698.78;;;3.03;89.47
34374;BME280;20637;55.770;37.592;2022-12-24T07:05:43;98696.00;;;3.05;89.92
34374;BME280;20637;55.770;37.592;2022-12-24T07:08:08;98694.31;;;3.04;89.92
34374;BME280;20637;55.770;37.592;2022-12-24T07:10:34;98701.75;;;3.00;89.70
34374;BME280;20637;55.770;37.592;2022-12-24T07:12:59;98694.03;;;2.97;90.20
34374;BME280;20637;55.770;37.592;2022-12-24T07:15:25;98700.34;;;2.96;90.06
34374;BME280;20637;55.770;37.592;2022-12-24T07:17:50;98708.47;;;2.95;90.34
34374;BME280;20637;55.770;37.592;2022-12-24T07:20:15;98704.13;;;2.94;90.19
34374;BME280;20637;55.770;37.592;2022-12-24T07:22:41;98704.13;;;2.94;90.29
34374;BME280;20637;55.770;37.592;2022-12-24T07:25:07;98700.34;;;2.96;90.64
34374;BME280;20637;55.770;37.592;2022-12-24T07:27:32;98704.25;;;3.02;90.83
34374;BME280;20637;55.770;37.592;2022-12-24T07:29:58;98700.19;;;3.07;90.62
34374;BME280;20637;55.770;37.592;2022-12-24T07:32:23;98695.94;;;3.14;90.79
34374;BME280;20637;55.770;37.592;2022-12-24T07:34:49;98698.19;;;3.19;91.00
34374;BME280;20637;55.770;37.592;2022-12-24T07:37:14;98704.06;;;3.22;90.78
34374;BME280;20637;55.770;37.592;2022-12-24T07:39:39;98700.13;;;3.26;91.01
34374;BME280;20637;55.770;37.592;2022-12-24T07:42:05;98699.16;;;3.27;91.03
34374;BME280;20637;55.770;37.592;2022-12-24T07:44:34;98701.81;;;3.27;90.79
34374;BME280;20637;55.770;37.592;2022-12-24T07:46:59;98697.47;;;3.26;90.51
34374;BME280;20637;55.770;37.592;2022-12-24T07:49:24;98702.09;;;3.24;90.05
34374;BME280;20637;55.770;37.592;2022-12-24T07:51:50;98698.88;;;3.21;89.89
34374;BME280;20637;55.770;37.592;2022-12-24T07:54:15;98705.06;;;3.21;90.15
34374;BME280;20637;55.770;37.592;2022-12-24T07:56:41;98698.06;;;3.20;89.86
34374;BME280;20637;55.770;37.592;2022-12-24T07:59:06;98698.31;;;3.17;89.65
34374;BME280;20637;55.770;37.592;2022-12-24T08:01:32;98701.28;;;3.14;89.64
34374;BME280;20637;55.770;37.592;2022-12-24T08:03:57;98695.94;;;3.14;89.12
34374;BME280;20637;55.770;37.592;2022-12-24T08:06:22;98696.50;;;3.18;89.08
34374;BME280;20637;55.770;37.592;2022-12-24T08:08:48;98699.16;;;3.18;89.43
34374;BME280;20637;55.770;37.592;2022-12-24T08:11:13;98695.66;;;3.17;89.25
34374;BME280;20637;55.770;37.592;2022-12-24T08:13:39;98699.16;;;3.18;89.00
34374;BME280;20637;55.770;37.592;2022-12-24T08:16:05;98706.06;;;3.20;88.96
34374;BME280;20637;55.770;37.592;2022-12-24T08:18:30;98703.66;;;3.17;88.59
34374;BME280;20637;55.770;37.592;2022-12-24T08:20:55;98701.16;;;3.16;88.47
34374;BME280;20637;55.770;37.592;2022-12-24T08:23:21;98696.94;;;3.13;88.69
34374;BME280;20637;55.770;37.592;2022-12-24T08:25:47;98695.69;;;3.08;88.49
34374;BME280;20637;55.770;37.592;2022-12-24T08:28:13;98696.13;;;3.03;88.65
34374;BME280;20637;55.770;37.592;2022-12-24T08:30:39;98689.09;;;3.02;88.27
34374;BME280;20637;55.770;37.592;2022-12-24T08:33:04;98697.81;;;3.04;88.42
34374;BME280;20637;55.770;37.592;2022-12-24T08:35:30;98693.47;;;3.03;88.64
34374;BME280;20637;55.770;37.592;2022-12-24T08:37:55;98695.16;;;3.04;88.63
34374;BME280;20637;55.770;37.592;2022-12-24T08:40:20;98692.91;;;3.00;88.25
34374;BME280;20637;55.770;37.592;2022-12-24T08:42:46;98695.44;;;3.01;88.36
34374;BME280;20637;55.770;37.592;2022-12-24T08:45:11;98689.94;;;3.03;88.71
34374;BME280;20637;55.770;37.592;2022-12-24T08:47:37;98688.69;;;3.07;88.75
34374;BME280;20637;55.770;37.592;2022-12-24T08:50:03;98690.91;;;3.11;88.88
34374;BME280;20637;55.770;37.592;2022-12-24T08:52:29;98689.66;;;3.15;88.67
34374;BME280;20637;55.770;37.592;2022-12-24T08:54:55;98688.94;;;3.13;88.39
34374;BME280;20637;55.770;37.592;2022-12-24T08:57:20;98689.47;;;3.17;88.76
34374;BME280;20637;55.770;37.592;2022-12-24T08:59:45;98687.81;;;3.16;88.22
34374;BME280;20637;55.770;37.592;2022-12-24T09:02:11;98688.94;;;3.13;88.17
34374;BME280;20637;55.770;37.592;2022-12-24T09:04:37;98681.09;;;3.12;88.21
34374;BME280;20637;55.770;37.592;2022-12-24T09:07:04;98685.28;;;3.14;88.31
34374;BME280;20637;55.770;37.592;2022-12-24T09:09:29;98678.97;;;3.15;88.10
34374;BME280;20637;55.770;37.592;2022-12-24T09:11:55;98681.78;;;3.14;88.16
34374;BME280;20637;55.770;37.592;2022-12-24T09:14:20;98679.13;;;3.14;87.59
34374;BME280;20637;55.770;37.592;2022-12-24T09:16:46;98679.28;;;3.12;87.65
34374;BME280;20637;55.770;37.592;2022-12-24T09:19:12;98680.25;;;3.11;87.64
34374;BME280;20637;55.770;37.592;2022-12-24T09:21:37;98678.25;;;3.13;87.86
34374;BME280;20637;55.770;37.592;2022-12-24T09:24:03;98676.31;;;3.15;87.50
34374;BME280;20637;55.770;37.592;2022-12-24T09:26:28;98674.06;;;3.20;87.83
34374;BME280;20637;55.770;37.592;2022-12-24T09:28:56;98668.28;;;3.25;87.97
34374;BME280;20637;55.770;37.592;2022-12-24T09:31:21;98662.81;;;3.26;87.57
34374;BME280;20637;55.770;37.592;2022-12-24T09:33:47;98658.16;;;3.28;87.87
34374;BME280;20637;55.770;37.592;2022-12-24T09:36:14;98656.63;;;3.26;87.80
34374;BME280;20637;55.770;37.592;2022-12-24T09:38:39;98658.16;;;3.28;87.64
34374;BME280;20637;55.770;37.592;2022-12-24T09:41:12;98658.31;;;3.27;87.63
34374;BME280;20637;55.770;37.592;2022-12-24T09:43:38;98653.97;;;3.26;87.34
34374;BME280;20637;55.770;37.592;2022-12-24T09:46:10;98656.63;;;3.26;86.98
34374;BME280;20637;55.770;37.592;2022-12-24T09:48:42;98654.25;;;3.23;87.01
34374;BME280;20637;55.770;37.592;2022-12-24T09:51:10;98651.41;;;3.24;87.17
34374;BME280;20637;55.770;37.592;2022-12-24T09:53:44;98655.66;;;3.27;87.06
34374;BME280;20637;55.770;37.592;2022-12-24T09:56:26;98655.78;;;3.25;86.98
34374;BME280;20637;55.770;37.592;2022-12-24T09:58:56;98650.44;;;3.25;87.06
34374;BME280;20637;55.770;37.592;2022-12-24T10:01:22;98654.38;;;3.21;87.14
34374;BME280;20637;55.770;37.592;2022-12-24T10:03:48;98658.19;;;3.19;87.32
34374;BME280;20637;55.770;37.592;2022-12-24T10:06:23;98657.75;;;3.23;87.19
34374;BME280;20637;55.770;37.592;2022-12-24T10:11:26;98661.41;;;3.22;87.21
34374;BME280;20637;55.770;37.592;2022-12-24T10:14:13;98657.91;;;3.22;86.97
34374;BME280;20637;55.770;37.592;2022-12-24T10:16:51;98663.66;;;3.17;87.17
34374;BME280;20637;55.770;37.592;2022-12-24T10:24:45;98656.25;;;3.02;86.96
34374;BME280;20637;55.770;37.592;2022-12-24T10:27:13;98662.75;;;2.99;87.08
34374;BME280;20637;55.770;37.592;2022-12-24T10:29:46;98663.72;;;2.98;87.28
34374;BME280;20637;55.770;37.592;2022-12-24T10:32:20;98666.97;;;2.92;87.03
34374;BME280;20637;55.770;37.592;2022-12-24T10:35:28;98661.50;;;2.84;87.07
34374;BME280;20637;55.770;37.592;2022-12-24T10:37:34;98667.97;;;2.72;87.32
34374;BME280;20637;55.770;37.592;2022-12-24T10:40:01;98671.22;;;2.66;87.18
34374;BME280;20637;55.770;37.592;2022-12-24T10:42:46;98662.69;;;2.62;87.34
34374;BME280;20637;55.770;37.592;2022-12-24T10:45:19;98664.06;;;2.57;87.66
34374;BME280;20637;55.770;37.592;2022-12-24T10:47:47;98666.72;;;2.57;87.55
34374;BME280;20637;55.770;37.592;2022-12-24T10:50:35;98667.03;;;2.54;87.60
34374;BME280;20637;55.770;37.592;2022-12-24T10:53:22;98665.63;;;2.50;87.74
34374;BME280;20637;55.770;37.592;2022-12-24T10:55:48;98674.47;;;2.50;88.00
34374;BME280;20637;55.770;37.592;2022-12-24T10:58:17;98661.97;;;2.51;87.92
34374;BME280;20637;55.770;37.592;2022-12-24T11:00:50;98676.69;;;2.55;88.26
34374;BME280;20637;55.770;37.592;2022-12-24T11:03:23;98668.97;;;2.61;88.35
34374;BME280;20637;55.770;37.592;2022-12-24T11:06:05;98670.22;;;2.67;88.30
34374;BME280;20637;55.770;37.592;2022-12-24T11:08:31;98669.66;;;2.73;88.75
34374;BME280;20637;55.770;37.592;2022-12-24T11:10:59;98679.91;;;2.77;88.41
34374;BME280;20637;55.770;37.592;2022-12-24T11:13:43;98683.41;;;2.78;88.54
34374;BME280;20637;55.770;37.592;2022-12-24T11:18:36;98679.75;;;2.79;88.43
34374;BME280;20637;55.770;37.592;2022-12-24T11:21:02;98679.19;;;2.75;88.76
34374;BME280;20637;55.770;37.592;2022-12-24T11:23:29;98698.13;;;2.72;88.58
34374;BME280;20637;55.770;37.592;2022-12-24T11:25:54;98688.31;;;2.73;88.57
34374;BME280;20637;55.770;37.592;2022-12-24T11:28:22;98697.16;;;2.73;88.77
34374;BME280;20637;55.770;37.592;2022-12-24T11:33:26;98696.31;;;2.73;88.65
34374;BME280;20637;55.770;37.592;2022-12-24T11:35:53;98693.78;;;2.71;88.72
34374;BME280;20637;55.770;37.592;2022-12-24T11:38:20;98690.28;;;2.71;88.73
34374;BME280;20637;55.770;37.592;2022-12-24T11:40:47;98691.28;;;2.70;88.81
34374;BME280;20637;55.770;37.592;2022-12-24T11:43:17;98705.69;;;2.67;88.72
34374;BME280;20637;55.770;37.592;2022-12-24T11:45:50;98714.41;;;2.69;88.86
34374;BME280;20637;55.770;37.592;2022-12-24T11:50:58;98715.81;;;2.73;88.88
34374;BME280;20637;55.770;37.592;2022-12-24T11:56:06;98716.91;;;2.80;88.95
34374;BME280;20637;55.770;37.592;2022-12-24T11:58:46;98727.59;;;2.80;88.80
34374;BME280;20637;55.770;37.592;2022-12-24T12:03:46;98734.84;;;2.78;88.67
34374;BME280;20637;55.770;37.592;2022-12-24T12:06:34;98738.09;;;2.82;88.84
34374;BME280;20637;55.770;37.592;2022-12-24T12:09:21;98734.72;;;2.80;89.05
34374;BME280;20637;55.770;37.592;2022-12-24T12:11:49;98741.75;;;2.81;88.38
34374;BME280;20637;55.770;37.592;2022-12-24T12:14:26;98739.66;;;2.84;88.51
34374;BME280;20637;55.770;37.592;2022-12-24T12:16:57;98746.22;;;2.90;88.52
34374;BME280;20637;55.770;37.592;2022-12-24T12:22:02;98758.72;;;2.90;88.38
34374;BME280;20637;55.770;37.592;2022-12-24T12:24:32;98756.88;;;2.90;88.45
34374;BME280;20637;55.770;37.592;2022-12-24T12:27:10;98753.78;;;2.95;88.30
34374;BME280;20637;55.770;37.592;2022-12-24T12:29:41;98752.53;;;2.99;88.55
34374;BME280;20637;55.770;37.592;2022-12-24T12:32:11;98754.66;;;3.05;88.38
34374;BME280;20637;55.770;37.592;2022-12-24T12:34:45;98765.00;;;3.08;88.56
34374;BME280;20637;55.770;37.592;2022-12-24T12:39:41;98770.34;;;3.08;88.29
34374;BME280;20637;55.770;37.592;2022-12-24T12:47:42;98784.38;;;3.10;87.74
34374;BME280;20637;55.770;37.592;2022-12-24T12:50:13;98784.38;;;3.10;87.71
34374;BME280;20637;55.770;37.592;2022-12-24T12:57:58;98789.56;;;3.11;87.43
34374;BME280;20637;55.770;37.592;2022-12-24T13:00:25;98791.38;;;3.11;87.94
34374;BME280;20637;55.770;37.592;2022-12-24T13:20:53;98803.59;;;3.13;87.42
34374;BME280;20637;55.770;37.592;2022-12-24T13:23:23;98814.81;;;3.17;87.58
34374;BME280;20637;55.770;37.592;2022-12-24T13:25:53;98819.03;;;3.19;87.81
34374;BME280;20637;55.770;37.592;2022-12-24T13:30:45;98825.19;;;3.29;88.24
34374;BME280;20637;55.770;37.592;2022-12-24T13:33:11;98827.16;;;3.37;87.78
34374;BME280;20637;55.770;37.592;2022-12-24T13:35:55;98826.84;;;3.40;88.05
34374;BME280;20637;55.770;37.592;2022-12-24T13:40:50;98841.91;;;3.31;88.14
34374;BME280;20637;55.770;37.592;2022-12-24T13:43:16;98840.50;;;3.27;87.56
34374;BME280;20637;55.770;37.592;2022-12-24T13:45:42;98842.75;;;3.22;87.74
34374;BME280;20637;55.770;37.592;2022-12-24T13:50:44;98846.69;;;3.09;87.17
34374;BME280;20637;55.770;37.592;2022-12-24T13:55:56;98852.56;;;3.03;87.38
34374;BME280;20637;55.770;37.592;2022-12-24T13:58:23;98855.09;;;3.04;87.30
34374;BME280;20637;55.770;37.592;2022-12-24T14:03:31;98867.31;;;3.07;87.60
34374;BME280;20637;55.770;37.592;2022-12-24T14:06:00;98886.81;;;3.07;87.09
34374;BME280;20637;55.770;37.592;2022-12-24T14:08:27;98872.50;;;3.08;87.70
34374;BME280;20637;55.770;37.592;2022-12-24T14:10:59;98884.16;;;3.07;87.15
34374;BME280;20637;55.770;37.592;2022-12-24T14:16:07;98888.06;;;3.13;87.60
34374;BME280;20637;55.770;37.592;2022-12-24T14:18:36;98879.94;;;3.14;87.37
34374;BME280;20637;55.770;37.592;2022-12-24T14:21:02;98885.16;;;3.16;87.54
34374;BME280;20637;55.770;37.592;2022-12-24T14:26:11;98896.66;;;3.16;87.66
34374;BME280;20637;55.770;37.592;2022-12-24T14:28:39;98899.16;;;3.18;87.10
34374;BME280;20637;55.770;37.592;2022-12-24T14:31:10;98910.41;;;3.21;87.63
34374;BME280;20637;55.770;37.592;2022-12-24T14:33:37;98912.22;;;3.21;87.71
34374;BME280;20637;55.770;37.592;2022-12-24T14:36:03;98918.41;;;3.21;87.54
34374;BME280;20637;55.770;37.592;2022-12-24T14:38:28;98915.03;;;3.19;87.47